sensor_id;sensor_type;location;lat;lon;timestamp;P1;durP1;ratioP1;P2;durP2;ratioP2
19889;SDS011;10107;51.198;6.824;2023-04-12T00:01:33;4.03;;;1.70;;
19889;SDS011;10107;51.198;6.824;2023-04-12T00:05:37;6.00;;;2.08;;
19889;SDS011;10107;51.198;6.824;2023-04-12T00:09:38;4.27;;;1.80;;
19889;SDS011;10107;51.198;6.824;2023-04-12T00:13:40;6.45;;;2.38;;
19889;SDS011;10107;51.198;6.824;2023-04-12T00:17:42;4.97;;;2.00;;
19889;SDS011;10107;51.198;6.824;2023-04-12T00:21:46;5.47;;;2.00;;
19889;SDS011;10107;51.198;6.824;2023-04-12T00:25:48;6.15;;;2.30;;
19889;SDS011;10107;51.198;6.824;2023-04-12T00:29:50;5.40;;;1.90;;
19889;SDS011;10107;51.198;6.824;2023-04-12T00:33:52;6.00;;;2.45;;
19889;SDS011;10107;51.198;6.824;2023-04-12T00:37:55;4.97;;;1.80;;
19889;SDS011;10107;51.198;6.824;2023-04-12T00:41:56;3.97;;;1.40;;
19889;SDS011;10107;51.198;6.824;2023-04-12T00:45:58;5.72;;;2.30;;
19889;SDS011;10107;51.198;6.824;2023-04-12T00:50:00;5.93;;;2.03;;
19889;SDS011;10107;51.198;6.824;2023-04-12T00:54:04;6.00;;;2.13;;
19889;SDS011;10107;51.198;6.824;2023-04-12T00:58:07;4.68;;;2.45;;
19889;SDS011;10107;51.198;6.824;2023-04-12T01:02:08;8.25;;;2.22;;
19889;SDS011;10107;51.198;6.824;2023-04-12T01:06:11;8.50;;;2.42;;
19889;SDS011;10107;51.198;6.824;2023-04-12T01:14:21;5.97;;;2.40;;
19889;SDS011;10107;51.198;6.824;2023-04-12T01:18:32;5.25;;;2.20;;
19889;SDS011;10107;51.198;6.824;2023-04-12T01:22:52;5.00;;;2.33;;
19889;SDS011;10107;51.198;6.824;2023-04-12T01:27:09;6.50;;;2.20;;
19889;SDS011;10107;51.198;6.824;2023-04-12T01:31:22;5.18;;;2.08;;
19889;SDS011;10107;51.198;6.824;2023-04-12T01:35:28;6.07;;;2.30;;
19889;SDS011;10107;51.198;6.824;2023-04-12T01:39:31;6.53;;;2.13;;
19889;SDS011;10107;51.198;6.824;2023-04-12T01:43:40;7.45;;;2.50;;
19889;SDS011;10107;51.198;6.824;2023-04-12T01:47:42;5.68;;;2.17;;
19889;SDS011;10107;51.198;6.824;2023-04-12T01:51:47;4.05;;;1.90;;
19889;SDS011;10107;51.198;6.824;2023-04-12T01:55:52;6.05;;;1.88;;
19889;SDS011;10107;51.198;6.824;2023-04-12T02:00:01;5.65;;;1.90;;
19889;SDS011;10107;51.198;6.824;2023-04-12T02:04:13;4.30;;;1.70;;
19889;SDS011;10107;51.198;6.824;2023-04-12T02:08:17;4.65;;;1.70;;
19889;SDS011;10107;51.198;6.824;2023-04-12T02:12:21;5.00;;;1.95;;
19889;SDS011;10107;51.198;6.824;2023-04-12T02:16:24;5.43;;;1.88;;
19889;SDS011;10107;51.198;6.824;2023-04-12T02:20:28;7.05;;;2.03;;
19889;SDS011;10107;51.198;6.824;2023-04-12T02:24:30;4.63;;;1.85;;
19889;SDS011;10107;51.198;6.824;2023-04-12T02:28:32;3.30;;;1.90;;
19889;SDS011;10107;51.198;6.824;2023-04-12T02:32:36;3.95;;;2.13;;
19889;SDS011;10107;51.198;6.824;2023-04-12T02:36:46;9.30;;;2.58;;
19889;SDS011;10107;51.198;6.824;2023-04-12T02:40:47;4.78;;;2.45;;
19889;SDS011;10107;51.198;6.824;2023-04-12T02:48:54;5.13;;;2.28;;
19889;SDS011;10107;51.198;6.824;2023-04-12T02:53:04;4.43;;;2.40;;
19889;SDS011;10107;51.198;6.824;2023-04-12T02:57:06;5.10;;;2.50;;
19889;SDS011;10107;51.198;6.824;2023-04-12T03:01:12;6.88;;;2.42;;
19889;SDS011;10107;51.198;6.824;2023-04-12T03:05:37;6.55;;;2.58;;
19889;SDS011;10107;51.198;6.824;2023-04-12T03:09:39;6.32;;;2.47;;
19889;SDS011;10107;51.198;6.824;2023-04-12T03:13:42;7.55;;;2.90;;
19889;SDS011;10107;51.198;6.824;2023-04-12T03:17:45;6.13;;;2.55;;
19889;SDS011;10107;51.198;6.824;2023-04-12T03:21:49;5.28;;;2.63;;
19889;SDS011;10107;51.198;6.824;2023-04-12T03:30:05;5.85;;;2.10;;
19889;SDS011;10107;51.198;6.824;2023-04-12T03:34:12;7.10;;;2.53;;
19889;SDS011;10107;51.198;6.824;2023-04-12T03:38:19;6.43;;;2.30;;
19889;SDS011;10107;51.198;6.824;2023-04-12T03:42:22;6.10;;;2.33;;
19889;SDS011;10107;51.198;6.824;2023-04-12T03:46:24;7.25;;;2.63;;
19889;SDS011;10107;51.198;6.824;2023-04-12T03:50:30;6.60;;;2.17;;
19889;SDS011;10107;51.198;6.824;2023-04-12T03:54:44;6.57;;;2.00;;
19889;SDS011;10107;51.198;6.824;2023-04-12T03:58:49;4.05;;;2.10;;
19889;SDS011;10107;51.198;6.824;2023-04-12T04:06:58;5.97;;;2.28;;
19889;SDS011;10107;51.198;6.824;2023-04-12T04:11:04;3.00;;;2.03;;
19889;SDS011;10107;51.198;6.824;2023-04-12T04:15:13;5.28;;;2.30;;
19889;SDS011;10107;51.198;6.824;2023-04-12T04:19:15;6.28;;;1.90;;
19889;SDS011;10107;51.198;6.824;2023-04-12T04:23:19;3.90;;;2.17;;
19889;SDS011;10107;51.198;6.824;2023-04-12T04:27:24;5.07;;;1.70;;
19889;SDS011;10107;51.198;6.824;2023-04-12T04:31:30;5.80;;;2.45;;
19889;SDS011;10107;51.198;6.824;2023-04-12T04:35:37;6.68;;;2.17;;
19889;SDS011;10107;51.198;6.824;2023-04-12T04:39:54;6.85;;;2.30;;
19889;SDS011;10107;51.198;6.824;2023-04-12T04:43:58;4.15;;;2.60;;
19889;SDS011;10107;51.198;6.824;2023-04-12T04:48:03;4.50;;;2.67;;
19889;SDS011;10107;51.198;6.824;2023-04-12T04:52:05;3.97;;;2.50;;
19889;SDS011;10107;51.198;6.824;2023-04-12T04:56:08;5.95;;;3.25;;
19889;SDS011;10107;51.198;6.824;2023-04-12T05:00:12;4.90;;;2.70;;
19889;SDS011;10107;51.198;6.824;2023-04-12T05:04:18;7.03;;;2.92;;
19889;SDS011;10107;51.198;6.824;2023-04-12T05:08:20;7.55;;;3.20;;
19889;SDS011;10107;51.198;6.824;2023-04-12T05:12:23;6.20;;;3.30;;
19889;SDS011;10107;51.198;6.824;2023-04-12T05:16:29;5.60;;;3.05;;
19889;SDS011;10107;51.198;6.824;2023-04-12T05:20:31;5.43;;;2.92;;
19889;SDS011;10107;51.198;6.824;2023-04-12T05:24:33;5.05;;;3.15;;
19889;SDS011;10107;51.198;6.824;2023-04-12T05:28:35;6.45;;;3.10;;
19889;SDS011;10107;51.198;6.824;2023-04-12T05:32:38;7.32;;;3.38;;
19889;SDS011;10107;51.198;6.824;2023-04-12T05:36:40;7.20;;;3.33;;
19889;SDS011;10107;51.198;6.824;2023-04-12T05:40:42;5.80;;;3.45;;
19889;SDS011;10107;51.198;6.824;2023-04-12T05:44:44;4.88;;;3.08;;
19889;SDS011;10107;51.198;6.824;2023-04-12T05:48:50;5.25;;;2.97;;
19889;SDS011;10107;51.198;6.824;2023-04-12T05:52:51;5.63;;;2.93;;
19889;SDS011;10107;51.198;6.824;2023-04-12T05:56:58;5.85;;;3.50;;
19889;SDS011;10107;51.198;6.824;2023-04-12T06:01:00;5.65;;;3.53;;
19889;SDS011;10107;51.198;6.824;2023-04-12T06:05:03;7.13;;;3.47;;
19889;SDS011;10107;51.198;6.824;2023-04-12T06:09:07;6.05;;;3.28;;
19889;SDS011;10107;51.198;6.824;2023-04-12T06:13:10;5.78;;;3.55;;
19889;SDS011;10107;51.198;6.824;2023-04-12T06:17:15;5.38;;;3.10;;
19889;SDS011;10107;51.198;6.824;2023-04-12T06:21:18;6.75;;;3.60;;
19889;SDS011;10107;51.198;6.824;2023-04-12T06:29:23;4.65;;;3.08;;
19889;SDS011;10107;51.198;6.824;2023-04-12T06:33:25;4.90;;;3.13;;
19889;SDS011;10107;51.198;6.824;2023-04-12T06:37:28;5.97;;;3.53;;
19889;SDS011;10107;51.198;6.824;2023-04-12T06:41:30;5.53;;;3.40;;
19889;SDS011;10107;51.198;6.824;2023-04-12T06:49:35;5.78;;;3.53;;
19889;SDS011;10107;51.198;6.824;2023-04-12T06:53:38;7.57;;;3.53;;
19889;SDS011;10107;51.198;6.824;2023-04-12T06:57:40;4.70;;;2.50;;
19889;SDS011;10107;51.198;6.824;2023-04-12T07:01:42;8.07;;;4.07;;
19889;SDS011;10107;51.198;6.824;2023-04-12T07:05:43;6.15;;;4.00;;
19889;SDS011;10107;51.198;6.824;2023-04-12T07:09:47;8.97;;;3.67;;
19889;SDS011;10107;51.198;6.824;2023-04-12T07:13:50;5.90;;;3.88;;
19889;SDS011;10107;51.198;6.824;2023-04-12T07:17:52;5.70;;;3.40;;
19889;SDS011;10107;51.198;6.824;2023-04-12T07:21:53;5.47;;;3.63;;
19889;SDS011;10107;51.198;6.824;2023-04-12T07:25:59;5.60;;;3.40;;
19889;SDS011;10107;51.198;6.824;2023-04-12T07:30:01;6.10;;;3.42;;
19889;SDS011;10107;51.198;6.824;2023-04-12T07:34:02;5.70;;;3.20;;
19889;SDS011;10107;51.198;6.824;2023-04-12T07:38:04;3.92;;;3.20;;
19889;SDS011;10107;51.198;6.824;2023-04-12T07:42:07;4.28;;;3.42;;
19889;SDS011;10107;51.198;6.824;2023-04-12T07:46:09;5.95;;;3.30;;
19889;SDS011;10107;51.198;6.824;2023-04-12T07:50:12;6.32;;;3.03;;
19889;SDS011;10107;51.198;6.824;2023-04-12T07:54:14;5.10;;;3.42;;
19889;SDS011;10107;51.198;6.824;2023-04-12T07:58:17;4.93;;;3.30;;
19889;SDS011;10107;51.198;6.824;2023-04-12T08:02:20;5.78;;;3.33;;
19889;SDS011;10107;51.198;6.824;2023-04-12T08:06:25;7.68;;;3.67;;
19889;SDS011;10107;51.198;6.824;2023-04-12T08:10:27;7.13;;;3.65;;
19889;SDS011;10107;51.198;6.824;2023-04-12T08:14:30;3.60;;;3.00;;
19889;SDS011;10107;51.198;6.824;2023-04-12T08:18:32;4.53;;;2.40;;
19889;SDS011;10107;51.198;6.824;2023-04-12T08:22:34;7.53;;;3.55;;
19889;SDS011;10107;51.198;6.824;2023-04-12T08:26:35;6.88;;;3.15;;
19889;SDS011;10107;51.198;6.824;2023-04-12T08:30:38;3.88;;;2.88;;
19889;SDS011;10107;51.198;6.824;2023-04-12T08:34:40;4.00;;;2.63;;
19889;SDS011;10107;51.198;6.824;2023-04-12T08:38:41;3.47;;;2.65;;
19889;SDS011;10107;51.198;6.824;2023-04-12T08:42:43;6.60;;;2.90;;
19889;SDS011;10107;51.198;6.824;2023-04-12T08:46:47;2.97;;;2.45;;
19889;SDS011;10107;51.198;6.824;2023-04-12T08:50:49;5.65;;;2.65;;
19889;SDS011;10107;51.198;6.824;2023-04-12T08:54:52;3.15;;;2.03;;
19889;SDS011;10107;51.198;6.824;2023-04-12T08:58:55;4.57;;;2.60;;
19889;SDS011;10107;51.198;6.824;2023-04-12T09:02:59;3.60;;;2.25;;
19889;SDS011;10107;51.198;6.824;2023-04-12T09:07:00;4.60;;;2.33;;
19889;SDS011;10107;51.198;6.824;2023-04-12T09:11:14;3.20;;;2.50;;
19889;SDS011;10107;51.198;6.824;2023-04-12T09:15:22;3.35;;;2.42;;
19889;SDS011;10107;51.198;6.824;2023-04-12T09:19:31;3.60;;;2.70;;
19889;SDS011;10107;51.198;6.824;2023-04-12T09:23:33;3.40;;;2.60;;
19889;SDS011;10107;51.198;6.824;2023-04-12T09:27:44;3.53;;;2.83;;
19889;SDS011;10107;51.198;6.824;2023-04-12T09:31:53;3.25;;;2.47;;
19889;SDS011;10107;51.198;6.824;2023-04-12T09:35:59;2.65;;;2.20;;
19889;SDS011;10107;51.198;6.824;2023-04-12T09:40:03;3.92;;;2.88;;
19889;SDS011;10107;51.198;6.824;2023-04-12T09:44:06;6.28;;;3.20;;
19889;SDS011;10107;51.198;6.824;2023-04-12T09:48:07;4.57;;;3.45;;
19889;SDS011;10107;51.198;6.824;2023-04-12T09:52:20;4.35;;;3.40;;
19889;SDS011;10107;51.198;6.824;2023-04-12T09:56:22;4.17;;;3.77;;
19889;SDS011;10107;51.198;6.824;2023-04-12T10:00:24;4.60;;;3.35;;
19889;SDS011;10107;51.198;6.824;2023-04-12T10:04:26;3.40;;;2.80;;
19889;SDS011;10107;51.198;6.824;2023-04-12T10:08:31;4.03;;;2.88;;
19889;SDS011;10107;51.198;6.824;2023-04-12T10:12:34;3.20;;;2.50;;
19889;SDS011;10107;51.198;6.824;2023-04-12T10:16:36;2.45;;;2.08;;
19889;SDS011;10107;51.198;6.824;2023-04-12T10:20:41;2.95;;;2.60;;
19889;SDS011;10107;51.198;6.824;2023-04-12T10:24:50;3.25;;;2.60;;
19889;SDS011;10107;51.198;6.824;2023-04-12T10:33:28;4.70;;;2.57;;
19889;SDS011;10107;51.198;6.824;2023-04-12T10:50:55;1.65;;;1.05;;
19889;SDS011;10107;51.198;6.824;2023-04-12T10:55:26;1.00;;;0.90;;
19889;SDS011;10107;51.198;6.824;2023-04-12T11:04:04;2.65;;;2.00;;
19889;SDS011;10107;51.198;6.824;2023-04-12T11:08:07;3.13;;;2.20;;
19889;SDS011;10107;51.198;6.824;2023-04-12T11:12:26;2.97;;;2.25;;
19889;SDS011;10107;51.198;6.824;2023-04-12T11:16:30;3.78;;;2.63;;
19889;SDS011;10107;51.198;6.824;2023-04-12T11:20:32;4.15;;;2.83;;
19889;SDS011;10107;51.198;6.824;2023-04-12T11:24:36;3.85;;;2.50;;
19889;SDS011;10107;51.198;6.824;2023-04-12T11:28:38;4.00;;;2.13;;
19889;SDS011;10107;51.198;6.824;2023-04-12T11:32:43;3.97;;;2.33;;
19889;SDS011;10107;51.198;6.824;2023-04-12T11:36:46;4.15;;;2.17;;
19889;SDS011;10107;51.198;6.824;2023-04-12T11:40:49;2.97;;;1.90;;
19889;SDS011;10107;51.198;6.824;2023-04-12T11:44:51;4.35;;;2.03;;
19889;SDS011;10107;51.198;6.824;2023-04-12T11:48:54;3.05;;;1.67;;
19889;SDS011;10107;51.198;6.824;2023-04-12T11:53:07;2.43;;;1.57;;
19889;SDS011;10107;51.198;6.824;2023-04-12T11:57:11;4.35;;;2.13;;
19889;SDS011;10107;51.198;6.824;2023-04-12T12:01:14;3.55;;;1.90;;
19889;SDS011;10107;51.198;6.824;2023-04-12T12:05:18;3.45;;;1.67;;
19889;SDS011;10107;51.198;6.824;2023-04-12T12:09:21;4.85;;;1.70;;
19889;SDS011;10107;51.198;6.824;2023-04-12T12:13:23;3.47;;;1.88;;
19889;SDS011;10107;51.198;6.824;2023-04-12T12:17:25;3.25;;;1.95;;
19889;SDS011;10107;51.198;6.824;2023-04-12T12:21:29;3.80;;;1.60;;
19889;SDS011;10107;51.198;6.824;2023-04-12T12:25:30;2.80;;;1.17;;
19889;SDS011;10107;51.198;6.824;2023-04-12T12:29:36;4.20;;;2.00;;
19889;SDS011;10107;51.198;6.824;2023-04-12T12:33:38;3.38;;;1.70;;
19889;SDS011;10107;51.198;6.824;2023-04-12T12:37:48;5.03;;;2.10;;
19889;SDS011;10107;51.198;6.824;2023-04-12T12:41:54;3.92;;;1.80;;
19889;SDS011;10107;51.198;6.824;2023-04-12T12:45:56;5.72;;;2.75;;
19889;SDS011;10107;51.198;6.824;2023-04-12T12:49:58;6.28;;;2.83;;
19889;SDS011;10107;51.198;6.824;2023-04-12T12:54:01;4.47;;;2.20;;
19889;SDS011;10107;51.198;6.824;2023-04-12T12:58:02;4.67;;;2.33;;
19889;SDS011;10107;51.198;6.824;2023-04-12T13:02:04;5.43;;;2.28;;
19889;SDS011;10107;51.198;6.824;2023-04-12T13:06:06;4.50;;;1.95;;
19889;SDS011;10107;51.198;6.824;2023-04-12T13:10:10;8.75;;;2.53;;
19889;SDS011;10107;51.198;6.824;2023-04-12T13:14:12;6.32;;;2.00;;
19889;SDS011;10107;51.198;6.824;2023-04-12T13:18:14;8.63;;;2.40;;
19889;SDS011;10107;51.198;6.824;2023-04-12T13:22:15;5.18;;;2.00;;
19889;SDS011;10107;51.198;6.824;2023-04-12T13:26:19;7.72;;;2.38;;
19889;SDS011;10107;51.198;6.824;2023-04-12T13:30:20;9.23;;;2.27;;
19889;SDS011;10107;51.198;6.824;2023-04-12T13:34:22;7.82;;;2.72;;
19889;SDS011;10107;51.198;6.824;2023-04-12T13:38:24;8.35;;;2.30;;
19889;SDS011;10107;51.198;6.824;2023-04-12T13:42:27;9.77;;;2.80;;
19889;SDS011;10107;51.198;6.824;2023-04-12T13:46:29;9.27;;;3.00;;
19889;SDS011;10107;51.198;6.824;2023-04-12T13:50:30;8.60;;;2.10;;
19889;SDS011;10107;51.198;6.824;2023-04-12T13:54:32;5.65;;;1.80;;
19889;SDS011;10107;51.198;6.824;2023-04-12T13:58:35;7.57;;;1.90;;
19889;SDS011;10107;51.198;6.824;2023-04-12T14:02:38;7.13;;;2.33;;
19889;SDS011;10107;51.198;6.824;2023-04-12T14:06:40;6.63;;;3.95;;
19889;SDS011;10107;51.198;6.824;2023-04-12T14:10:44;9.55;;;5.45;;
19889;SDS011;10107;51.198;6.824;2023-04-12T14:14:47;2.58;;;1.23;;
19889;SDS011;10107;51.198;6.824;2023-04-12T14:18:49;3.07;;;1.03;;
19889;SDS011;10107;51.198;6.824;2023-04-12T14:22:50;2.00;;;0.80;;
19889;SDS011;10107;51.198;6.824;2023-04-12T14:26:53;4.40;;;1.17;;
19889;SDS011;10107;51.198;6.824;2023-04-12T14:30:57;4.43;;;1.35;;
19889;SDS011;10107;51.198;6.824;2023-04-12T14:35:00;2.10;;;1.10;;
19889;SDS011;10107;51.198;6.824;2023-04-12T14:39:03;3.17;;;1.58;;
19889;SDS011;10107;51.198;6.824;2023-04-12T14:43:05;3.00;;;1.30;;
19889;SDS011;10107;51.198;6.824;2023-04-12T14:47:08;6.28;;;1.52;;
19889;SDS011;10107;51.198;6.824;2023-04-12T14:51:09;4.57;;;1.37;;
19889;SDS011;10107;51.198;6.824;2023-04-12T14:55:11;4.22;;;1.33;;
19889;SDS011;10107;51.198;6.824;2023-04-12T14:59:12;4.18;;;1.20;;
19889;SDS011;10107;51.198;6.824;2023-04-12T15:03:16;3.53;;;1.40;;
19889;SDS011;10107;51.198;6.824;2023-04-12T15:07:18;5.20;;;1.83;;
19889;SDS011;10107;51.198;6.824;2023-04-12T15:11:19;2.28;;;1.20;;
19889;SDS011;10107;51.198;6.824;2023-04-12T15:15:25;4.38;;;1.67;;
19889;SDS011;10107;51.198;6.824;2023-04-12T15:19:29;2.72;;;1.40;;
19889;SDS011;10107;51.198;6.824;2023-04-12T15:23:31;2.28;;;1.38;;
19889;SDS011;10107;51.198;6.824;2023-04-12T15:27:32;1.95;;;1.08;;
19889;SDS011;10107;51.198;6.824;2023-04-12T15:31:34;1.65;;;0.98;;
19889;SDS011;10107;51.198;6.824;2023-04-12T15:35:37;1.52;;;0.80;;
19889;SDS011;10107;51.198;6.824;2023-04-12T15:39:38;1.20;;;0.60;;
19889;SDS011;10107;51.198;6.824;2023-04-12T15:43:40;1.48;;;0.70;;
19889;SDS011;10107;51.198;6.824;2023-04-12T15:47:44;0.82;;;0.80;;
19889;SDS011;10107;51.198;6.824;2023-04-12T15:51:47;2.88;;;1.23;;
19889;SDS011;10107;51.198;6.824;2023-04-12T15:55:49;1.13;;;0.70;;
19889;SDS011;10107;51.198;6.824;2023-04-12T15:59:53;1.63;;;0.85;;
19889;SDS011;10107;51.198;6.824;2023-04-12T16:03:56;3.63;;;0.90;;
19889;SDS011;10107;51.198;6.824;2023-04-12T16:07:59;1.83;;;0.90;;
19889;SDS011;10107;51.198;6.824;2023-04-12T16:12:01;3.77;;;2.30;;
19889;SDS011;10107;51.198;6.824;2023-04-12T16:16:03;6.10;;;1.77;;
19889;SDS011;10107;51.198;6.824;2023-04-12T16:20:07;1.92;;;1.35;;
19889;SDS011;10107;51.198;6.824;2023-04-12T16:24:13;3.00;;;1.80;;
19889;SDS011;10107;51.198;6.824;2023-04-12T16:28:14;3.27;;;1.90;;
19889;SDS011;10107;51.198;6.824;2023-04-12T16:32:17;3.55;;;1.90;;
19889;SDS011;10107;51.198;6.824;2023-04-12T16:36:18;2.35;;;1.35;;
19889;SDS011;10107;51.198;6.824;2023-04-12T16:40:23;2.70;;;1.17;;
19889;SDS011;10107;51.198;6.824;2023-04-12T16:44:25;2.72;;;0.80;;
19889;SDS011;10107;51.198;6.824;2023-04-12T16:48:27;2.75;;;0.90;;
19889;SDS011;10107;51.198;6.824;2023-04-12T16:52:29;3.28;;;0.95;;
19889;SDS011;10107;51.198;6.824;2023-04-12T16:56:33;1.67;;;0.90;;
19889;SDS011;10107;51.198;6.824;2023-04-12T17:00:34;0.93;;;0.80;;
19889;SDS011;10107;51.198;6.824;2023-04-12T17:04:37;2.28;;;0.98;;
19889;SDS011;10107;51.198;6.824;2023-04-12T17:08:39;3.20;;;0.98;;
19889;SDS011;10107;51.198;6.824;2023-04-12T17:12:43;3.95;;;1.77;;
19889;SDS011;10107;51.198;6.824;2023-04-12T17:16:45;2.03;;;1.10;;
19889;SDS011;10107;51.198;6.824;2023-04-12T17:20:47;2.58;;;1.33;;
19889;SDS011;10107;51.198;6.824;2023-04-12T17:24:48;2.10;;;1.02;;
19889;SDS011;10107;51.198;6.824;2023-04-12T17:28:51;2.90;;;1.60;;
19889;SDS011;10107;51.198;6.824;2023-04-12T17:32:53;2.17;;;1.35;;
19889;SDS011;10107;51.198;6.824;2023-04-12T17:36:55;2.55;;;1.30;;
19889;SDS011;10107;51.198;6.824;2023-04-12T17:40:56;2.58;;;1.45;;
19889;SDS011;10107;51.198;6.824;2023-04-12T17:44:59;1.60;;;1.13;;
19889;SDS011;10107;51.198;6.824;2023-04-12T17:49:01;2.80;;;1.20;;
19889;SDS011;10107;51.198;6.824;2023-04-12T17:53:04;1.05;;;0.90;;
19889;SDS011;10107;51.198;6.824;2023-04-12T17:57:06;1.73;;;1.30;;
19889;SDS011;10107;51.198;6.824;2023-04-12T18:01:09;1.50;;;1.30;;
19889;SDS011;10107;51.198;6.824;2023-04-12T18:05:11;3.37;;;1.70;;
19889;SDS011;10107;51.198;6.824;2023-04-12T18:09:13;4.07;;;3.05;;
19889;SDS011;10107;51.198;6.824;2023-04-12T18:13:14;3.22;;;2.28;;
19889;SDS011;10107;51.198;6.824;2023-04-12T18:17:17;3.67;;;2.60;;
19889;SDS011;10107;51.198;6.824;2023-04-12T18:21:19;3.30;;;2.30;;
19889;SDS011;10107;51.198;6.824;2023-04-12T18:25:21;3.83;;;1.90;;
19889;SDS011;10107;51.198;6.824;2023-04-12T18:29:23;3.90;;;1.80;;
19889;SDS011;10107;51.198;6.824;2023-04-12T18:33:26;4.50;;;2.03;;
19889;SDS011;10107;51.198;6.824;2023-04-12T18:37:29;2.40;;;1.50;;
19889;SDS011;10107;51.198;6.824;2023-04-12T18:41:31;3.17;;;1.65;;
19889;SDS011;10107;51.198;6.824;2023-04-12T18:45:36;4.68;;;1.60;;
19889;SDS011;10107;51.198;6.824;2023-04-12T18:49:40;1.77;;;1.30;;
19889;SDS011;10107;51.198;6.824;2023-04-12T18:53:41;4.03;;;1.70;;
19889;SDS011;10107;51.198;6.824;2023-04-12T18:57:43;1.67;;;1.17;;
19889;SDS011;10107;51.198;6.824;2023-04-12T19:01:44;2.03;;;1.20;;
19889;SDS011;10107;51.198;6.824;2023-04-12T19:05:48;2.50;;;1.48;;
19889;SDS011;10107;51.198;6.824;2023-04-12T19:09:49;1.83;;;1.27;;
19889;SDS011;10107;51.198;6.824;2023-04-12T19:15:06;2.03;;;0.95;;
19889;SDS011;10107;51.198;6.824;2023-04-12T19:19:09;2.97;;;0.90;;
19889;SDS011;10107;51.198;6.824;2023-04-12T19:23:11;2.67;;;0.80;;
19889;SDS011;10107;51.198;6.824;2023-04-12T19:27:14;0.90;;;0.70;;
19889;SDS011;10107;51.198;6.824;2023-04-12T19:31:17;2.00;;;0.95;;
19889;SDS011;10107;51.198;6.824;2023-04-12T19:35:19;0.68;;;0.60;;
19889;SDS011;10107;51.198;6.824;2023-04-12T19:39:21;1.45;;;0.75;;
19889;SDS011;10107;51.198;6.824;2023-04-12T19:43:23;2.22;;;0.90;;
19889;SDS011;10107;51.198;6.824;2023-04-12T19:47:28;1.02;;;0.73;;
19889;SDS011;10107;51.198;6.824;2023-04-12T19:51:34;1.85;;;0.98;;
19889;SDS011;10107;51.198;6.824;2023-04-12T19:55:38;2.30;;;1.50;;
19889;SDS011;10107;51.198;6.824;2023-04-12T19:59:41;1.83;;;1.40;;
19889;SDS011;10107;51.198;6.824;2023-04-12T20:03:45;2.45;;;1.50;;
19889;SDS011;10107;51.198;6.824;2023-04-12T20:07:47;2.30;;;1.20;;
19889;SDS011;10107;51.198;6.824;2023-04-12T20:11:49;3.03;;;1.42;;
19889;SDS011;10107;51.198;6.824;2023-04-12T20:15:50;3.67;;;1.40;;
19889;SDS011;10107;51.198;6.824;2023-04-12T20:19:55;1.87;;;1.10;;
19889;SDS011;10107;51.198;6.824;2023-04-12T20:23:57;2.45;;;1.40;;
19889;SDS011;10107;51.198;6.824;2023-04-12T20:27:59;2.60;;;1.43;;
19889;SDS011;10107;51.198;6.824;2023-04-12T20:36:07;1.67;;;1.23;;
19889;SDS011;10107;51.198;6.824;2023-04-12T20:40:10;1.98;;;1.45;;
19889;SDS011;10107;51.198;6.824;2023-04-12T20:44:13;1.80;;;1.10;;
19889;SDS011;10107;51.198;6.824;2023-04-12T20:48:14;2.45;;;1.20;;
19889;SDS011;10107;51.198;6.824;2023-04-12T20:52:18;3.17;;;1.27;;
19889;SDS011;10107;51.198;6.824;2023-04-12T20:56:20;3.72;;;1.40;;
19889;SDS011;10107;51.198;6.824;2023-04-12T21:00:22;1.85;;;1.30;;
19889;SDS011;10107;51.198;6.824;2023-04-12T21:04:24;1.95;;;1.20;;
19889;SDS011;10107;51.198;6.824;2023-04-12T21:08:28;2.00;;;1.33;;
19889;SDS011;10107;51.198;6.824;2023-04-12T21:12:32;1.40;;;1.23;;
19889;SDS011;10107;51.198;6.824;2023-04-12T21:16:35;2.28;;;1.50;;
19889;SDS011;10107;51.198;6.824;2023-04-12T21:20:37;2.60;;;1.65;;
19889;SDS011;10107;51.198;6.824;2023-04-12T21:24:40;2.25;;;1.52;;
19889;SDS011;10107;51.198;6.824;2023-04-12T21:28:42;3.78;;;2.22;;
19889;SDS011;10107;51.198;6.824;2023-04-12T21:32:44;2.72;;;2.17;;
19889;SDS011;10107;51.198;6.824;2023-04-12T21:36:46;4.22;;;2.22;;
19889;SDS011;10107;51.198;6.824;2023-04-12T21:40:49;1.92;;;1.73;;
19889;SDS011;10107;51.198;6.824;2023-04-12T21:44:51;2.13;;;1.30;;
19889;SDS011;10107;51.198;6.824;2023-04-12T21:48:52;2.75;;;1.30;;
19889;SDS011;10107;51.198;6.824;2023-04-12T21:52:54;1.70;;;1.30;;
19889;SDS011;10107;51.198;6.824;2023-04-12T21:56:57;3.28;;;1.40;;
19889;SDS011;10107;51.198;6.824;2023-04-12T22:00:59;2.10;;;0.90;;
19889;SDS011;10107;51.198;6.824;2023-04-12T22:05:01;1.40;;;1.15;;
19889;SDS011;10107;51.198;6.824;2023-04-12T22:09:03;1.85;;;1.10;;
19889;SDS011;10107;51.198;6.824;2023-04-12T22:13:06;2.10;;;1.80;;
19889;SDS011;10107;51.198;6.824;2023-04-12T22:17:09;2.28;;;1.70;;
19889;SDS011;10107;51.198;6.824;2023-04-12T22:21:11;1.85;;;1.27;;
19889;SDS011;10107;51.198;6.824;2023-04-12T22:25:13;1.63;;;1.20;;
19889;SDS011;10107;51.198;6.824;2023-04-12T22:29:16;4.15;;;1.20;;
19889;SDS011;10107;51.198;6.824;2023-04-12T22:33:18;1.10;;;0.93;;
19889;SDS011;10107;51.198;6.824;2023-04-12T22:37:19;2.22;;;1.27;;
19889;SDS011;10107;51.198;6.824;2023-04-12T22:41:21;1.25;;;0.90;;
19889;SDS011;10107;51.198;6.824;2023-04-12T22:45:28;1.10;;;0.82;;
19889;SDS011;10107;51.198;6.824;2023-04-12T22:49:30;0.98;;;0.73;;
19889;SDS011;10107;51.198;6.824;2023-04-12T22:53:32;1.45;;;0.90;;
19889;SDS011;10107;51.198;6.824;2023-04-12T22:57:34;2.03;;;1.20;;
19889;SDS011;10107;51.198;6.824;2023-04-12T23:01:37;2.10;;;1.02;;
19889;SDS011;10107;51.198;6.824;2023-04-12T23:05:39;1.05;;;0.88;;
19889;SDS011;10107;51.198;6.824;2023-04-12T23:09:44;1.65;;;0.90;;
19889;SDS011;10107;51.198;6.824;2023-04-12T23:13:45;2.03;;;0.95;;
19889;SDS011;10107;51.198;6.824;2023-04-12T23:17:49;2.35;;;0.80;;
19889;SDS011;10107;51.198;6.824;2023-04-12T23:21:50;1.98;;;0.65;;
19889;SDS011;10107;51.198;6.824;2023-04-12T23:25:54;2.10;;;0.80;;
19889;SDS011;10107;51.198;6.824;2023-04-12T23:29:55;1.02;;;0.80;;
19889;SDS011;10107;51.198;6.824;2023-04-12T23:34:00;1.33;;;0.90;;
19889;SDS011;10107;51.198;6.824;2023-04-12T23:38:05;2.15;;;1.10;;
19889;SDS011;10107;51.198;6.824;2023-04-12T23:42:07;1.23;;;0.90;;
19889;SDS011;10107;51.198;6.824;2023-04-12T23:46:12;2.03;;;0.93;;
19889;SDS011;10107;51.198;6.824;2023-04-12T23:50:15;2.88;;;1.23;;
19889;SDS011;10107;51.198;6.824;2023-04-12T23:54:16;1.88;;;1.00;;
19889;SDS011;10107;51.198;6.824;2023-04-12T23:58:18;1.23;;;0.98;;
